Hayes River, Alaska
Current Conditions -  °F | °C
As of 11:53 AM on Thursday 27 Nov 2014 (Local Time) from PATK Reporting Station
Clear Clear  
Wind Chill: 11°   Ceiling: Unl
Heat Index: 11°   Visibility: 10mi
Dew Point:   Wind: 0mph
Humidity: 81%   Direction: NA
Pressure: 30.21"   Gusts: NA
Location:  61.98°N, 152.08°W
Report Text: PATK 272053Z 00000KT 10SM CLR M12/M14 A3021 RMK AO2 SLP240 T11171144 58000
Loading
Personal Weather Stations






























Interactive Weather Map New forecast layout! Learn more

10-Day Weather Forecast

Advertisements
Track Severe Weather on mobile